createdAt,value
2023-05-19T00:01:53.246Z,4.80
2023-05-19T00:04:21.432Z,4.85
2023-05-19T00:06:51.764Z,5.00
2023-05-19T00:09:19.132Z,5.28
2023-05-19T00:11:46.668Z,4.88
2023-05-19T00:14:14.205Z,5.32
2023-05-19T00:16:42.369Z,4.93
2023-05-19T00:19:12.487Z,5.03
2023-05-19T00:21:40.397Z,4.97
2023-05-19T00:24:07.741Z,5.65
2023-05-19T00:26:35.196Z,6.43
2023-05-19T00:29:02.438Z,8.40
2023-05-19T00:31:30.075Z,8.18
2023-05-19T00:33:57.262Z,6.40
2023-05-19T00:36:25.414Z,6.53
2023-05-19T00:38:52.368Z,5.72
2023-05-19T00:41:20.083Z,5.40
2023-05-19T00:43:47.017Z,5.80
2023-05-19T00:46:14.324Z,5.78
2023-05-19T00:48:44.750Z,5.93
2023-05-19T00:51:14.893Z,5.15
2023-05-19T00:53:43.956Z,5.72
2023-05-19T00:56:11.326Z,5.13
2023-05-19T00:58:39.317Z,4.95
2023-05-19T01:01:07.928Z,5.63
2023-05-19T01:03:36.271Z,5.85
2023-05-19T01:06:07.950Z,5.50
2023-05-19T01:08:37.349Z,4.97
2023-05-19T01:11:05.350Z,5.50
2023-05-19T01:13:33.168Z,5.20
2023-05-19T01:16:00.172Z,5.28
2023-05-19T01:19:01.815Z,5.30
2023-05-19T01:21:54.659Z,5.30
2023-05-19T01:24:59.067Z,4.82
2023-05-19T01:27:38.117Z,4.68
2023-05-19T01:30:16.651Z,4.50
2023-05-19T01:32:45.637Z,5.68
2023-05-19T01:35:15.585Z,5.18
2023-05-19T01:37:45.421Z,4.95
2023-05-19T01:40:12.910Z,4.80
2023-05-19T01:42:40.943Z,4.95
2023-05-19T01:45:11.721Z,5.30
2023-05-19T01:47:42.235Z,5.40
2023-05-19T01:50:09.841Z,5.18
2023-05-19T01:52:37.263Z,5.28
2023-05-19T01:55:04.767Z,4.97
2023-05-19T01:57:37.474Z,5.05
2023-05-19T02:00:26.995Z,5.28
2023-05-19T02:03:11.849Z,5.70
2023-05-19T02:05:49.772Z,5.10
2023-05-19T02:08:17.123Z,4.90
2023-05-19T02:10:50.402Z,4.93
2023-05-19T02:15:49.803Z,4.75
2023-05-19T02:18:19.365Z,5.00
2023-05-19T02:20:46.681Z,5.00
2023-05-19T02:23:13.993Z,4.90
2023-05-19T02:25:41.279Z,4.88
2023-05-19T02:28:08.620Z,5.35
2023-05-19T02:30:35.938Z,4.68
2023-05-19T02:33:03.015Z,4.75
2023-05-19T02:35:30.320Z,4.50
2023-05-19T02:37:57.679Z,4.65
2023-05-19T02:40:24.594Z,4.97
2023-05-19T02:42:52.062Z,4.93
2023-05-19T02:45:19.337Z,5.00
2023-05-19T02:47:46.690Z,4.68
2023-05-19T02:50:14.033Z,4.82
2023-05-19T02:52:41.298Z,4.60
2023-05-19T02:55:08.612Z,5.32
2023-05-19T02:57:35.929Z,4.50
2023-05-19T03:00:03.658Z,4.60
2023-05-19T03:02:33.448Z,5.35
2023-05-19T03:05:02.290Z,4.82
2023-05-19T03:07:29.616Z,4.68
2023-05-19T03:09:56.850Z,5.07
2023-05-19T03:12:23.844Z,4.97
2023-05-19T03:14:51.129Z,5.70
2023-05-19T03:17:18.429Z,5.22
2023-05-19T03:19:45.725Z,5.50
2023-05-19T03:22:12.624Z,4.95
2023-05-19T03:24:39.861Z,5.22
2023-05-19T03:27:06.829Z,5.43
2023-05-19T03:29:34.145Z,5.70
2023-05-19T03:32:01.834Z,6.18
2023-05-19T03:34:29.247Z,7.82
2023-05-19T03:36:56.588Z,5.93
2023-05-19T03:39:23.491Z,6.40
2023-05-19T03:41:50.677Z,6.32
2023-05-19T03:44:17.969Z,6.13
2023-05-19T03:46:44.893Z,5.60
2023-05-19T03:49:12.139Z,6.10
2023-05-19T03:51:39.438Z,8.85
2023-05-19T03:54:06.888Z,9.15
2023-05-19T03:56:34.266Z,7.97
2023-05-19T03:59:01.138Z,6.38
2023-05-19T04:01:28.455Z,7.00
2023-05-19T04:03:55.797Z,8.10
2023-05-19T04:06:23.490Z,6.30
2023-05-19T04:08:50.867Z,7.65
2023-05-19T04:11:20.636Z,7.65
2023-05-19T04:13:47.533Z,7.05
2023-05-19T04:16:14.722Z,7.00
2023-05-19T04:18:42.453Z,7.38
2023-05-19T04:21:09.726Z,7.15
2023-05-19T04:23:37.176Z,6.68
2023-05-19T04:26:06.924Z,7.45
2023-05-19T04:28:36.763Z,6.90
2023-05-19T04:31:04.123Z,7.13
2023-05-19T04:33:31.420Z,7.18
2023-05-19T04:35:58.778Z,6.80
2023-05-19T04:38:26.149Z,7.68
2023-05-19T04:40:53.511Z,7.20
2023-05-19T04:43:22.352Z,8.48
2023-05-19T04:45:51.537Z,7.30
2023-05-19T04:48:19.185Z,6.60
2023-05-19T04:50:48.883Z,6.03
2023-05-19T04:53:15.975Z,6.65
2023-05-19T04:55:43.285Z,6.53
2023-05-19T04:58:10.320Z,6.50
2023-05-19T05:00:40.029Z,6.90
2023-05-19T05:03:08.408Z,7.28
2023-05-19T05:05:35.869Z,7.28
2023-05-19T05:08:03.346Z,7.72
2023-05-19T05:10:30.400Z,7.38
2023-05-19T05:12:58.085Z,7.93
2023-05-19T05:15:28.665Z,8.10
2023-05-19T05:17:56.848Z,7.60
2023-05-19T05:20:24.344Z,7.28
2023-05-19T05:22:51.540Z,7.18
2023-05-19T05:25:19.132Z,6.68
2023-05-19T05:27:46.116Z,7.30
2023-05-19T05:30:13.252Z,7.40
2023-05-19T05:32:40.362Z,6.70
2023-05-19T05:35:08.151Z,6.57
2023-05-19T05:37:35.422Z,6.43
2023-05-19T05:40:03.816Z,6.60
2023-05-19T05:42:31.159Z,5.57
2023-05-19T05:44:58.042Z,5.13
2023-05-19T05:47:25.527Z,6.05
2023-05-19T05:49:53.657Z,10.27
2023-05-19T05:52:22.789Z,6.35
2023-05-19T05:54:50.253Z,5.90
2023-05-19T05:57:17.635Z,6.00
2023-05-19T05:59:47.162Z,5.35
2023-05-19T06:02:14.575Z,5.40
2023-05-19T06:04:41.904Z,5.25
2023-05-19T06:07:09.359Z,5.07
2023-05-19T06:09:36.710Z,6.93
2023-05-19T06:12:04.112Z,7.72
2023-05-19T06:14:31.063Z,5.57
2023-05-19T06:16:58.369Z,5.25
2023-05-19T06:19:25.533Z,5.53
2023-05-19T06:21:53.056Z,5.38
2023-05-19T06:24:20.355Z,5.65
2023-05-19T06:26:47.252Z,6.00
2023-05-19T06:29:14.475Z,6.40
2023-05-19T06:31:42.193Z,5.30
2023-05-19T06:34:12.422Z,5.15
2023-05-19T06:36:41.636Z,7.15
2023-05-19T06:39:08.564Z,4.97
2023-05-19T06:41:35.908Z,4.90
2023-05-19T06:44:04.372Z,5.00
2023-05-19T06:46:31.660Z,4.22
2023-05-19T06:48:58.956Z,4.63
2023-05-19T06:51:26.366Z,4.50
2023-05-19T06:53:53.229Z,5.40
2023-05-19T06:56:20.149Z,4.65
2023-05-19T06:58:47.479Z,4.75
2023-05-19T07:01:14.805Z,4.70
2023-05-19T07:03:42.174Z,4.93
2023-05-19T07:06:09.359Z,4.68
2023-05-19T07:08:37.281Z,4.93
2023-05-19T07:11:04.413Z,5.43
2023-05-19T07:13:33.016Z,4.97
2023-05-19T07:15:59.930Z,5.65
2023-05-19T07:18:27.308Z,5.63
2023-05-19T07:20:54.634Z,4.63
2023-05-19T07:23:21.986Z,5.13
2023-05-19T07:25:49.271Z,4.95
2023-05-19T07:28:17.075Z,4.68
2023-05-19T07:30:44.436Z,4.72
2023-05-19T07:33:11.764Z,4.63
2023-05-19T07:35:39.253Z,4.43
2023-05-19T07:38:07.548Z,5.35
2023-05-19T07:40:34.948Z,4.68
2023-05-19T07:43:01.921Z,4.93
2023-05-19T07:45:29.187Z,3.90
2023-05-19T07:47:56.165Z,4.70
2023-05-19T07:50:23.527Z,4.75
2023-05-19T07:52:50.380Z,4.10
2023-05-19T07:55:18.075Z,4.20
2023-05-19T07:57:45.150Z,4.05
2023-05-19T08:00:12.741Z,5.28
2023-05-19T08:02:40.267Z,5.00
2023-05-19T08:05:09.333Z,4.53
2023-05-19T08:07:36.675Z,4.43
2023-05-19T08:10:04.251Z,4.80
2023-05-19T08:12:31.586Z,4.45
2023-05-19T08:15:00.455Z,5.85
2023-05-19T08:17:28.823Z,5.47
2023-05-19T08:19:56.164Z,5.15
2023-05-19T08:22:23.232Z,4.93
2023-05-19T08:24:51.864Z,5.57
2023-05-19T08:27:18.854Z,5.43
2023-05-19T08:29:46.133Z,5.07
2023-05-19T08:32:13.627Z,5.53
2023-05-19T08:34:41.476Z,5.65
2023-05-19T08:37:08.387Z,5.45
2023-05-19T08:39:36.058Z,5.20
2023-05-19T08:42:03.521Z,5.05
2023-05-19T08:44:31.276Z,5.55
2023-05-19T08:47:03.128Z,5.38
2023-05-19T08:49:34.369Z,6.25
2023-05-19T08:52:19.548Z,5.80
2023-05-19T08:54:54.835Z,5.43
2023-05-19T08:57:24.983Z,4.82
2023-05-19T08:59:54.226Z,5.35
2023-05-19T09:02:22.663Z,6.22
2023-05-19T09:04:50.282Z,5.18
2023-05-19T09:07:18.990Z,5.20
2023-05-19T09:09:46.621Z,4.60
2023-05-19T09:12:14.440Z,4.60
2023-05-19T09:14:41.739Z,4.70
2023-05-19T09:17:09.192Z,4.82
2023-05-19T09:19:36.609Z,5.15
2023-05-19T09:22:03.921Z,5.30
2023-05-19T09:24:31.535Z,4.93
2023-05-19T09:27:00.197Z,5.25
2023-05-19T09:29:27.852Z,4.97
2023-05-19T09:32:00.967Z,4.68
2023-05-19T09:34:28.116Z,5.15
2023-05-19T09:36:55.405Z,4.97
2023-05-19T09:39:26.063Z,5.60
2023-05-19T09:41:54.379Z,5.75
2023-05-19T09:44:22.216Z,5.20
2023-05-19T09:46:53.872Z,7.63
2023-05-19T09:49:25.480Z,70.40
2023-05-19T09:51:57.071Z,7.93
2023-05-19T09:54:24.964Z,10.55
2023-05-19T09:57:03.625Z,8.05
2023-05-19T09:59:33.398Z,26.13
2023-05-19T10:02:02.576Z,6.65
2023-05-19T10:04:31.553Z,8.32
2023-05-19T10:06:59.859Z,8.77
2023-05-19T10:09:29.613Z,8.27
2023-05-19T10:11:57.704Z,9.00
2023-05-19T10:14:28.625Z,13.45
2023-05-19T10:16:57.483Z,7.38
2023-05-19T10:19:28.801Z,6.80
2023-05-19T10:21:56.461Z,5.60
2023-05-19T10:24:23.840Z,6.43
2023-05-19T10:27:14.534Z,6.65
2023-05-19T10:29:50.065Z,7.18
2023-05-19T10:32:24.017Z,6.00
2023-05-19T10:34:51.441Z,6.55
2023-05-19T10:37:40.181Z,6.78
2023-05-19T10:40:12.279Z,7.45
2023-05-19T10:42:50.533Z,7.53
2023-05-19T10:45:24.191Z,7.43
2023-05-19T10:47:51.962Z,7.13
2023-05-19T10:50:19.367Z,5.63
2023-05-19T10:52:57.356Z,6.88
2023-05-19T10:55:47.866Z,7.40
2023-05-19T10:58:15.155Z,8.48
2023-05-19T11:00:42.388Z,8.63
2023-05-19T11:03:17.803Z,7.38
2023-05-19T11:05:51.007Z,7.65
2023-05-19T11:11:16.463Z,12.13
2023-05-19T11:14:10.935Z,10.40
2023-05-19T11:16:38.260Z,8.05
2023-05-19T11:19:06.602Z,7.45
2023-05-19T11:21:49.100Z,8.15
2023-05-19T11:24:33.389Z,7.47
2023-05-19T11:27:01.037Z,7.68
2023-05-19T11:29:28.474Z,8.30
2023-05-19T11:31:56.084Z,7.60
2023-05-19T11:34:26.049Z,7.90
2023-05-19T11:36:53.510Z,8.02
2023-05-19T11:39:20.594Z,7.20
2023-05-19T11:41:48.062Z,15.93
2023-05-19T11:44:15.347Z,8.40
2023-05-19T11:46:42.697Z,6.72
2023-05-19T11:49:09.758Z,7.70
2023-05-19T11:51:38.354Z,7.28
2023-05-19T11:54:05.505Z,7.80
2023-05-19T11:56:40.045Z,7.65
2023-05-19T11:59:07.429Z,7.30
2023-05-19T12:01:34.995Z,8.73
2023-05-19T12:04:02.651Z,8.25
2023-05-19T12:06:30.268Z,7.38
2023-05-19T12:08:57.267Z,7.30
2023-05-19T12:11:24.651Z,7.95
2023-05-19T12:13:54.655Z,7.38
2023-05-19T12:16:22.083Z,8.18
2023-05-19T12:18:49.397Z,8.35
2023-05-19T12:21:17.434Z,9.07
2023-05-19T12:23:45.208Z,8.68
2023-05-19T12:26:12.333Z,9.02
2023-05-19T12:28:39.628Z,36.35
2023-05-19T12:31:06.553Z,10.32
2023-05-19T12:33:35.681Z,8.52
2023-05-19T12:36:03.281Z,9.20
2023-05-19T12:38:30.540Z,9.32
2023-05-19T12:41:00.190Z,8.40
2023-05-19T12:43:27.618Z,7.85
2023-05-19T12:45:55.107Z,9.45
2023-05-19T12:48:23.043Z,8.43
2023-05-19T12:50:55.821Z,8.55
2023-05-19T12:53:22.974Z,8.02
2023-05-19T12:55:52.866Z,8.00
2023-05-19T12:58:20.241Z,8.45
2023-05-19T13:00:49.835Z,8.45
2023-05-19T13:03:22.102Z,12.73
2023-05-19T13:05:51.321Z,9.27
2023-05-19T13:08:20.705Z,10.38
2023-05-19T13:10:49.279Z,10.98
2023-05-19T13:13:16.854Z,9.15
2023-05-19T13:15:45.656Z,9.90
2023-05-19T13:18:13.809Z,9.23
2023-05-19T13:20:42.050Z,9.07
2023-05-19T13:23:11.048Z,9.75
2023-05-19T13:25:38.152Z,8.82
2023-05-19T13:28:05.969Z,8.18
2023-05-19T13:30:34.638Z,8.88
2023-05-19T13:33:02.843Z,12.27
2023-05-19T13:35:36.765Z,10.38
2023-05-19T13:38:10.052Z,8.23
2023-05-19T13:40:37.883Z,10.32
2023-05-19T13:43:06.120Z,7.72
2023-05-19T13:45:33.182Z,10.98
2023-05-19T13:48:00.557Z,8.82
2023-05-19T13:50:27.568Z,10.55
2023-05-19T13:52:54.458Z,9.45
2023-05-19T13:55:22.584Z,9.63
2023-05-19T13:57:49.836Z,8.25
2023-05-19T14:00:18.330Z,9.13
2023-05-19T14:02:45.615Z,9.10
2023-05-19T14:05:13.154Z,9.05
2023-05-19T14:07:40.581Z,9.82
2023-05-19T14:10:08.592Z,8.65
2023-05-19T14:12:49.525Z,8.50
2023-05-19T14:15:23.854Z,9.07
2023-05-19T14:17:53.171Z,10.00
2023-05-19T14:20:20.541Z,12.77
2023-05-19T14:22:48.048Z,11.60
2023-05-19T14:25:14.977Z,9.18
2023-05-19T14:27:42.296Z,13.45
2023-05-19T14:30:10.755Z,10.88
2023-05-19T14:32:38.107Z,12.88
2023-05-19T14:35:05.506Z,10.05
2023-05-19T14:37:32.831Z,9.68
2023-05-19T14:40:00.360Z,11.45
2023-05-19T14:42:27.624Z,26.42
2023-05-19T14:44:54.948Z,24.40
2023-05-19T14:47:21.801Z,10.40
2023-05-19T14:49:49.203Z,15.77
2023-05-19T14:52:17.879Z,9.65
2023-05-19T14:54:45.185Z,8.75
2023-05-19T14:57:12.431Z,8.00
2023-05-19T14:59:40.016Z,13.18
2023-05-19T15:02:07.194Z,10.65
2023-05-19T15:04:34.484Z,14.10
2023-05-19T15:09:31.888Z,10.52
2023-05-19T15:12:01.356Z,9.98
2023-05-19T15:14:30.734Z,12.00
2023-05-19T15:16:58.785Z,14.38
2023-05-19T15:19:26.442Z,14.05
2023-05-19T15:21:53.585Z,9.85
2023-05-19T15:24:20.887Z,10.52
2023-05-19T15:26:48.219Z,11.70
2023-05-19T15:29:15.951Z,12.18
2023-05-19T15:31:43.390Z,12.25
2023-05-19T15:34:10.760Z,10.93
2023-05-19T15:36:38.037Z,9.90
2023-05-19T15:39:06.516Z,12.95
2023-05-19T15:41:33.389Z,13.18
2023-05-19T15:44:00.792Z,11.35
2023-05-19T15:46:28.228Z,12.18
2023-05-19T15:48:55.629Z,22.98
2023-05-19T15:51:22.816Z,26.85
2023-05-19T15:53:49.898Z,12.20
2023-05-19T15:56:17.383Z,33.03
2023-05-19T15:58:44.355Z,12.32
2023-05-19T16:01:11.676Z,12.45
2023-05-19T16:03:39.044Z,29.27
2023-05-19T16:06:06.419Z,25.85
2023-05-19T16:08:33.267Z,14.38
2023-05-19T16:11:00.325Z,13.32
2023-05-19T16:13:27.744Z,15.52
2023-05-19T16:15:54.637Z,12.55
2023-05-19T16:18:21.574Z,13.30
2023-05-19T16:20:48.954Z,30.88
2023-05-19T16:23:16.257Z,23.33
2023-05-19T16:25:43.149Z,21.38
2023-05-19T16:28:10.715Z,27.58
2023-05-19T16:30:38.111Z,26.65
2023-05-19T16:33:05.504Z,30.98
2023-05-19T16:35:33.461Z,32.65
2023-05-19T16:38:00.795Z,16.38
2023-05-19T16:40:30.761Z,14.98
2023-05-19T16:42:58.338Z,15.63
2023-05-19T16:45:26.527Z,15.43
2023-05-19T16:47:53.972Z,13.38
2023-05-19T16:50:21.371Z,16.73
2023-05-19T16:52:48.619Z,14.27
2023-05-19T16:55:19.712Z,13.98
2023-05-19T16:57:47.378Z,13.68
2023-05-19T17:00:15.016Z,13.85
2023-05-19T17:02:42.028Z,14.00
2023-05-19T17:05:10.016Z,13.52
2023-05-19T17:07:37.038Z,14.30
2023-05-19T17:10:04.398Z,13.23
2023-05-19T17:12:31.718Z,13.10
2023-05-19T17:14:58.987Z,13.48
2023-05-19T17:17:25.985Z,12.85
2023-05-19T17:19:53.409Z,15.82
2023-05-19T17:22:20.803Z,13.80
2023-05-19T17:24:47.681Z,14.25
2023-05-19T17:27:15.168Z,24.00
2023-05-19T17:29:42.514Z,14.93
2023-05-19T17:32:09.820Z,13.27
2023-05-19T17:34:36.806Z,12.45
2023-05-19T17:37:04.178Z,16.35
2023-05-19T17:39:31.530Z,15.80
2023-05-19T17:41:58.946Z,16.77
2023-05-19T17:44:25.831Z,12.27
2023-05-19T17:46:53.257Z,12.77
2023-05-19T17:49:21.659Z,17.23
2023-05-19T17:51:49.011Z,15.73
2023-05-19T17:54:16.368Z,13.80
2023-05-19T17:56:45.659Z,13.32
2023-05-19T17:59:13.027Z,14.13
2023-05-19T18:01:40.972Z,15.18
2023-05-19T18:04:08.385Z,16.35
2023-05-19T18:06:38.675Z,16.48
2023-05-19T18:09:09.665Z,22.05
2023-05-19T18:11:37.516Z,24.60
2023-05-19T18:14:04.432Z,43.97
2023-05-19T18:16:31.613Z,39.80
2023-05-19T18:18:58.907Z,21.48
2023-05-19T18:21:26.859Z,24.92
2023-05-19T18:23:53.785Z,33.38
2023-05-19T18:26:21.551Z,45.70
2023-05-19T18:28:48.458Z,20.67
2023-05-19T18:31:20.012Z,22.25
2023-05-19T18:33:47.347Z,16.40
2023-05-19T18:36:16.504Z,27.38
2023-05-19T18:38:43.564Z,34.55
2023-05-19T18:41:10.488Z,18.23
2023-05-19T18:43:37.433Z,23.60
2023-05-19T18:46:04.515Z,27.23
2023-05-19T18:48:33.243Z,17.92
2023-05-19T18:51:00.316Z,24.45
2023-05-19T18:53:27.288Z,29.10
2023-05-19T18:55:54.214Z,21.00
2023-05-19T18:58:21.635Z,19.13
2023-05-19T19:00:49.268Z,29.08
2023-05-19T19:03:16.328Z,18.88
2023-05-19T19:05:44.054Z,18.38
2023-05-19T19:08:11.078Z,17.48
2023-05-19T19:10:40.681Z,15.98
2023-05-19T19:13:07.702Z,16.33
2023-05-19T19:15:34.690Z,17.13
2023-05-19T19:18:02.344Z,16.60
2023-05-19T19:20:29.296Z,16.92
2023-05-19T19:22:56.923Z,17.65
2023-05-19T19:25:23.915Z,15.85
2023-05-19T19:27:51.264Z,15.95
2023-05-19T19:30:18.609Z,16.45
2023-05-19T19:32:45.906Z,22.60
2023-05-19T19:35:12.934Z,24.35
2023-05-19T19:37:39.901Z,17.88
2023-05-19T19:40:07.496Z,17.85
2023-05-19T19:42:34.646Z,17.08
2023-05-19T19:45:01.717Z,17.48
2023-05-19T19:47:28.654Z,28.40
2023-05-19T19:49:56.204Z,22.73
2023-05-19T19:52:23.148Z,26.17
2023-05-19T19:54:50.098Z,30.83
2023-05-19T19:57:17.398Z,21.98
2023-05-19T19:59:44.385Z,22.08
2023-05-19T20:02:11.590Z,21.65
2023-05-19T20:04:38.662Z,23.35
2023-05-19T20:07:05.947Z,24.35
2023-05-19T20:09:32.803Z,27.60
2023-05-19T20:11:59.796Z,22.77
2023-05-19T20:14:27.080Z,22.45
2023-05-19T20:16:53.938Z,22.35
2023-05-19T20:19:21.210Z,22.05
2023-05-19T20:21:48.297Z,21.02
2023-05-19T20:24:15.187Z,20.88
2023-05-19T20:26:42.061Z,21.00
2023-05-19T20:29:08.971Z,23.98
2023-05-19T20:31:36.168Z,21.83
2023-05-19T20:34:03.045Z,21.40
2023-05-19T20:36:29.987Z,34.15
2023-05-19T20:38:57.219Z,22.60
2023-05-19T20:41:24.120Z,19.45
2023-05-19T20:43:51.052Z,19.00
2023-05-19T20:46:18.001Z,19.92
2023-05-19T20:48:44.986Z,18.48
2023-05-19T20:51:11.905Z,18.55
2023-05-19T20:53:38.982Z,18.92
2023-05-19T20:56:07.349Z,17.88
2023-05-19T20:58:34.259Z,19.73
2023-05-19T21:01:01.346Z,18.90
2023-05-19T21:03:28.684Z,20.05
2023-05-19T21:05:56.487Z,19.27
2023-05-19T21:08:23.905Z,19.45
2023-05-19T21:10:51.217Z,19.30
2023-05-19T21:13:18.763Z,18.23
2023-05-19T21:15:45.697Z,19.35
2023-05-19T21:18:12.916Z,20.67
2023-05-19T21:20:40.197Z,18.98
2023-05-19T21:23:07.148Z,19.77
2023-05-19T21:25:34.053Z,18.42
2023-05-19T21:28:01.143Z,19.67
2023-05-19T21:30:28.061Z,19.52
2023-05-19T21:32:55.156Z,19.27
2023-05-19T21:35:22.222Z,20.70
2023-05-19T21:37:49.124Z,19.98
2023-05-19T21:40:16.190Z,20.60
2023-05-19T21:42:43.111Z,19.83
2023-05-19T21:45:10.544Z,20.70
2023-05-19T21:47:37.410Z,20.30
2023-05-19T21:50:04.516Z,20.42
2023-05-19T21:52:31.463Z,20.50
2023-05-19T21:54:58.460Z,24.75
2023-05-19T21:57:25.492Z,26.02
2023-05-19T21:59:52.410Z,20.83
2023-05-19T22:02:19.298Z,19.73
2023-05-19T22:04:46.398Z,20.27
2023-05-19T22:07:13.256Z,21.10
2023-05-19T22:09:40.140Z,21.27
2023-05-19T22:12:07.615Z,19.58
2023-05-19T22:14:34.551Z,21.27
2023-05-19T22:17:01.451Z,34.63
2023-05-19T22:19:28.953Z,21.65
2023-05-19T22:22:05.997Z,18.60
2023-05-19T22:24:40.327Z,18.50
2023-05-19T22:27:08.448Z,19.13
2023-05-19T22:29:38.381Z,19.15
2023-05-19T22:32:07.736Z,18.60
2023-05-19T22:34:34.712Z,18.80
2023-05-19T22:37:01.989Z,35.70
2023-05-19T22:39:28.891Z,21.80
2023-05-19T22:41:55.809Z,20.00
2023-05-19T22:44:22.737Z,20.00
2023-05-19T22:46:49.615Z,20.50
2023-05-19T22:49:16.510Z,20.88
2023-05-19T22:51:43.502Z,22.48
2023-05-19T22:54:10.872Z,20.08
2023-05-19T22:56:37.799Z,21.42
2023-05-19T22:59:04.744Z,20.55
2023-05-19T23:01:31.695Z,21.10
2023-05-19T23:03:58.650Z,22.88
2023-05-19T23:06:26.090Z,21.27
2023-05-19T23:09:02.748Z,21.88
2023-05-19T23:11:29.821Z,21.42
2023-05-19T23:13:56.883Z,22.58
2023-05-19T23:16:23.825Z,22.05
2023-05-19T23:18:50.760Z,22.13
2023-05-19T23:21:17.646Z,22.55
2023-05-19T23:23:44.679Z,23.40
2023-05-19T23:26:13.637Z,22.65
2023-05-19T23:28:42.619Z,22.75
2023-05-19T23:31:09.955Z,23.88
2023-05-19T23:33:37.011Z,23.83
2023-05-19T23:36:08.771Z,23.00
2023-05-19T23:38:38.322Z,24.27
2023-05-19T23:41:05.463Z,23.80
2023-05-19T23:43:32.563Z,25.00
2023-05-19T23:46:00.279Z,23.95
2023-05-19T23:48:28.856Z,24.40
2023-05-19T23:50:55.802Z,23.33
2023-05-19T23:53:22.791Z,24.33
2023-05-19T23:55:49.673Z,23.35
2023-05-19T23:58:16.584Z,24.63
